sensor_id;sensor_type;location;lat;lon;timestamp;pressure;altitude;pressure_sealevel;temperature;humidity
13593;BME280;6867;50.998;4.250;2023-04-22T00:00:19;100542.94;;;9.49;80.36
13593;BME280;6867;50.998;4.250;2023-04-22T00:02:45;100540.84;;;9.44;80.10
13593;BME280;6867;50.998;4.250;2023-04-22T00:05:12;100548.50;;;9.41;80.26
13593;BME280;6867;50.998;4.250;2023-04-22T00:07:39;100537.75;;;9.34;79.84
13593;BME280;6867;50.998;4.250;2023-04-22T00:10:09;100537.34;;;9.37;79.93
13593;BME280;6867;50.998;4.250;2023-04-22T00:12:36;100537.31;;;9.17;79.57
13593;BME280;6867;50.998;4.250;2023-04-22T00:15:03;100528.84;;;9.14;80.21
13593;BME280;6867;50.998;4.250;2023-04-22T00:17:31;100535.25;;;9.13;80.71
13593;BME280;6867;50.998;4.250;2023-04-22T00:19:58;100524.75;;;9.31;79.55
13593;BME280;6867;50.998;4.250;2023-04-22T00:22:26;100525.19;;;9.41;79.94
13593;BME280;6867;50.998;4.250;2023-04-22T00:24:52;100521.25;;;9.44;79.29
13593;BME280;6867;50.998;4.250;2023-04-22T00:27:20;100523.75;;;9.45;79.10
13593;BME280;6867;50.998;4.250;2023-04-22T00:29:47;100520.63;;;9.29;79.31
13593;BME280;6867;50.998;4.250;2023-04-22T00:32:14;100523.94;;;9.24;79.01
13593;BME280;6867;50.998;4.250;2023-04-22T00:34:40;100525.81;;;9.37;79.31
13593;BME280;6867;50.998;4.250;2023-04-22T00:37:07;100519.19;;;9.39;78.96
13593;BME280;6867;50.998;4.250;2023-04-22T00:39:34;100522.28;;;9.43;80.00
13593;BME280;6867;50.998;4.250;2023-04-22T00:42:04;100524.34;;;9.47;80.05
13593;BME280;6867;50.998;4.250;2023-04-22T00:44:32;100520.63;;;9.42;80.18
13593;BME280;6867;50.998;4.250;2023-04-22T00:47:01;100520.25;;;9.45;79.44
13593;BME280;6867;50.998;4.250;2023-04-22T00:49:28;100526.81;;;9.42;79.56
13593;BME280;6867;50.998;4.250;2023-04-22T00:51:55;100526.59;;;9.44;79.91
13593;BME280;6867;50.998;4.250;2023-04-22T00:54:21;100524.16;;;9.49;79.84
13593;BME280;6867;50.998;4.250;2023-04-22T00:56:48;100522.91;;;9.52;79.86
13593;BME280;6867;50.998;4.250;2023-04-22T00:59:15;100518.78;;;9.42;79.43
13593;BME280;6867;50.998;4.250;2023-04-22T01:01:43;100519.81;;;9.48;79.13
13593;BME280;6867;50.998;4.250;2023-04-22T01:04:10;100516.09;;;9.42;79.48
13593;BME280;6867;50.998;4.250;2023-04-22T01:06:39;100511.16;;;9.39;79.54
13593;BME280;6867;50.998;4.250;2023-04-22T01:09:06;100506.19;;;9.23;79.24
13593;BME280;6867;50.998;4.250;2023-04-22T01:11:34;100498.75;;;9.18;79.18
13593;BME280;6867;50.998;4.250;2023-04-22T01:14:01;100501.25;;;9.13;78.97
13593;BME280;6867;50.998;4.250;2023-04-22T01:16:29;100498.75;;;9.05;79.13
13593;BME280;6867;50.998;4.250;2023-04-22T01:19:00;100491.13;;;9.09;78.47
13593;BME280;6867;50.998;4.250;2023-04-22T01:21:27;100488.25;;;9.10;79.58
13593;BME280;6867;50.998;4.250;2023-04-22T01:23:59;100490.91;;;9.10;79.77
13593;BME280;6867;50.998;4.250;2023-04-22T01:26:26;100494.66;;;9.16;79.20
13593;BME280;6867;50.998;4.250;2023-04-22T01:28:53;100502.69;;;9.16;80.07
13593;BME280;6867;50.998;4.250;2023-04-22T01:31:20;100501.03;;;9.08;79.24
13593;BME280;6867;50.998;4.250;2023-04-22T01:33:46;100500.84;;;9.16;79.83
13593;BME280;6867;50.998;4.250;2023-04-22T01:36:13;100499.16;;;9.15;79.30
13593;BME280;6867;50.998;4.250;2023-04-22T01:38:40;100495.91;;;9.20;79.74
13593;BME280;6867;50.998;4.250;2023-04-22T01:41:08;100491.53;;;9.19;79.45
13593;BME280;6867;50.998;4.250;2023-04-22T01:43:35;100489.28;;;9.22;79.22
13593;BME280;6867;50.998;4.250;2023-04-22T01:46:04;100483.94;;;9.16;79.66
13593;BME280;6867;50.998;4.250;2023-04-22T01:48:31;100483.91;;;9.09;78.77
13593;BME280;6867;50.998;4.250;2023-04-22T01:50:58;100489.25;;;9.03;79.69
13593;BME280;6867;50.998;4.250;2023-04-22T01:53:24;100491.34;;;9.07;79.82
13593;BME280;6867;50.998;4.250;2023-04-22T01:55:52;100487.03;;;9.13;79.92
13593;BME280;6867;50.998;4.250;2023-04-22T01:58:20;100484.53;;;9.18;79.88
13593;BME280;6867;50.998;4.250;2023-04-22T02:00:46;100491.97;;;9.22;79.72
13593;BME280;6867;50.998;4.250;2023-04-22T02:03:13;100496.72;;;9.27;79.88
13593;BME280;6867;50.998;4.250;2023-04-22T02:05:40;100486.59;;;9.22;80.24
13593;BME280;6867;50.998;4.250;2023-04-22T02:08:06;100484.97;;;9.35;79.62
13593;BME280;6867;50.998;4.250;2023-04-22T02:10:33;100491.56;;;9.32;79.22
13593;BME280;6867;50.998;4.250;2023-04-22T02:13:00;100491.78;;;9.24;79.95
13593;BME280;6867;50.998;4.250;2023-04-22T02:15:28;100489.91;;;9.25;79.23
13593;BME280;6867;50.998;4.250;2023-04-22T02:17:54;100490.72;;;9.18;79.49
13593;BME280;6867;50.998;4.250;2023-04-22T02:20:21;100498.34;;;9.15;79.88
13593;BME280;6867;50.998;4.250;2023-04-22T02:22:48;100487.22;;;9.18;79.75
13593;BME280;6867;50.998;4.250;2023-04-22T02:25:15;100491.34;;;9.20;79.90
13593;BME280;6867;50.998;4.250;2023-04-22T02:27:42;100487.03;;;9.26;79.84
13593;BME280;6867;50.998;4.250;2023-04-22T02:30:09;100484.75;;;9.23;79.98
13593;BME280;6867;50.998;4.250;2023-04-22T02:32:37;100486.63;;;9.29;79.96
13593;BME280;6867;50.998;4.250;2023-04-22T02:35:05;100487.84;;;9.20;79.95
13593;BME280;6867;50.998;4.250;2023-04-22T02:37:32;100490.34;;;9.28;80.58
13593;BME280;6867;50.998;4.250;2023-04-22T02:39:58;100479.19;;;9.25;79.53
13593;BME280;6867;50.998;4.250;2023-04-22T02:42:25;100476.53;;;9.25;80.11
13593;BME280;6867;50.998;4.250;2023-04-22T02:44:52;100479.81;;;9.27;79.89
13593;BME280;6867;50.998;4.250;2023-04-22T02:47:18;100476.94;;;9.28;79.79
13593;BME280;6867;50.998;4.250;2023-04-22T02:49:46;100467.44;;;9.32;80.09
13593;BME280;6867;50.998;4.250;2023-04-22T02:52:13;100464.75;;;9.39;79.48
13593;BME280;6867;50.998;4.250;2023-04-22T02:54:40;100456.72;;;9.39;79.35
13593;BME280;6867;50.998;4.250;2023-04-22T02:57:06;100466.22;;;9.28;78.99
13593;BME280;6867;50.998;4.250;2023-04-22T02:59:34;100462.69;;;9.41;79.63
13593;BME280;6867;50.998;4.250;2023-04-22T03:02:01;100448.88;;;9.37;79.33
13593;BME280;6867;50.998;4.250;2023-04-22T03:04:27;100449.88;;;9.36;79.63
13593;BME280;6867;50.998;4.250;2023-04-22T03:06:56;100439.81;;;9.38;79.87
13593;BME280;6867;50.998;4.250;2023-04-22T03:09:22;100443.31;;;9.39;78.80
13593;BME280;6867;50.998;4.250;2023-04-22T03:11:49;100433.41;;;9.39;79.10
13593;BME280;6867;50.998;4.250;2023-04-22T03:14:16;100428.88;;;9.33;79.16
13593;BME280;6867;50.998;4.250;2023-04-22T03:16:42;100434.44;;;9.38;79.36
13593;BME280;6867;50.998;4.250;2023-04-22T03:19:09;100430.13;;;9.37;79.23
13593;BME280;6867;50.998;4.250;2023-04-22T03:21:36;100420.00;;;9.39;79.20
13593;BME280;6867;50.998;4.250;2023-04-22T03:24:04;100418.97;;;9.40;79.24
13593;BME280;6867;50.998;4.250;2023-04-22T03:26:31;100413.41;;;9.42;79.42
13593;BME280;6867;50.998;4.250;2023-04-22T03:28:57;100405.56;;;9.47;79.50
13593;BME280;6867;50.998;4.250;2023-04-22T03:31:24;100401.88;;;9.41;79.10
13593;BME280;6867;50.998;4.250;2023-04-22T03:33:51;100400.81;;;9.42;79.25
13593;BME280;6867;50.998;4.250;2023-04-22T03:36:18;100400.41;;;9.45;78.64
13593;BME280;6867;50.998;4.250;2023-04-22T03:38:45;100394.00;;;9.46;79.28
13593;BME280;6867;50.998;4.250;2023-04-22T03:41:13;100389.47;;;9.47;79.01
13593;BME280;6867;50.998;4.250;2023-04-22T03:43:40;100393.00;;;9.41;78.53
13593;BME280;6867;50.998;4.250;2023-04-22T03:46:07;100389.47;;;9.47;78.54
13593;BME280;6867;50.998;4.250;2023-04-22T03:48:33;100376.69;;;9.49;78.66
13593;BME280;6867;50.998;4.250;2023-04-22T03:51:00;100378.94;;;9.52;78.29
13593;BME280;6867;50.998;4.250;2023-04-22T03:53:28;100382.66;;;9.44;79.10
13593;BME280;6867;50.998;4.250;2023-04-22T03:55:54;100393.19;;;9.39;79.05
13593;BME280;6867;50.998;4.250;2023-04-22T03:58:22;100400.44;;;9.32;79.98
13593;BME280;6867;50.998;4.250;2023-04-22T04:00:49;100402.91;;;9.27;79.73
13593;BME280;6867;50.998;4.250;2023-04-22T04:03:16;100397.94;;;9.37;80.62
13593;BME280;6867;50.998;4.250;2023-04-22T04:05:42;100399.97;;;9.48;79.97
13593;BME280;6867;50.998;4.250;2023-04-22T04:08:09;100401.88;;;9.41;79.88
13593;BME280;6867;50.998;4.250;2023-04-22T04:10:36;100398.69;;;9.64;80.15
13593;BME280;6867;50.998;4.250;2023-04-22T04:13:03;100396.22;;;9.69;79.36
13593;BME280;6867;50.998;4.250;2023-04-22T04:15:31;100394.16;;;9.65;79.26
13593;BME280;6867;50.998;4.250;2023-04-22T04:17:59;100400.78;;;9.56;80.03
13593;BME280;6867;50.998;4.250;2023-04-22T04:20:27;100397.28;;;9.48;80.48
13593;BME280;6867;50.998;4.250;2023-04-22T04:22:54;100412.34;;;9.56;80.70
13593;BME280;6867;50.998;4.250;2023-04-22T04:25:21;100406.75;;;9.64;80.60
13593;BME280;6867;50.998;4.250;2023-04-22T04:27:47;100404.94;;;9.58;80.03
13593;BME280;6867;50.998;4.250;2023-04-22T04:30:14;100413.75;;;9.65;80.54
13593;BME280;6867;50.998;4.250;2023-04-22T04:32:43;100396.63;;;9.73;80.23
13593;BME280;6867;50.998;4.250;2023-04-22T04:35:10;100394.16;;;9.71;80.77
13593;BME280;6867;50.998;4.250;2023-04-22T04:37:38;100385.88;;;9.73;80.39
13593;BME280;6867;50.998;4.250;2023-04-22T04:40:06;100389.56;;;9.85;80.70
13593;BME280;6867;50.998;4.250;2023-04-22T04:42:34;100381.31;;;9.87;80.39
13593;BME280;6867;50.998;4.250;2023-04-22T04:45:01;100378.41;;;9.95;80.22
13593;BME280;6867;50.998;4.250;2023-04-22T04:47:28;100381.44;;;9.98;80.37
13593;BME280;6867;50.998;4.250;2023-04-22T04:49:59;100376.66;;;10.07;80.11
13593;BME280;6867;50.998;4.250;2023-04-22T04:52:26;100376.97;;;9.86;79.82
13593;BME280;6867;50.998;4.250;2023-04-22T04:54:53;100377.59;;;9.81;79.79
13593;BME280;6867;50.998;4.250;2023-04-22T04:57:20;100380.91;;;9.83;80.97
13593;BME280;6867;50.998;4.250;2023-04-22T04:59:46;100381.50;;;9.85;81.11
13593;BME280;6867;50.998;4.250;2023-04-22T05:02:14;100378.00;;;9.91;80.47
13593;BME280;6867;50.998;4.250;2023-04-22T05:04:41;100387.09;;;9.84;80.82
13593;BME280;6867;50.998;4.250;2023-04-22T05:07:09;100384.59;;;9.89;81.81
13593;BME280;6867;50.998;4.250;2023-04-22T05:09:35;100385.25;;;9.84;80.95
13593;BME280;6867;50.998;4.250;2023-04-22T05:12:02;100395.31;;;9.95;81.40
13593;BME280;6867;50.998;4.250;2023-04-22T05:14:29;100388.66;;;10.05;80.52
13593;BME280;6867;50.998;4.250;2023-04-22T05:16:56;100386.97;;;10.10;80.88
13593;BME280;6867;50.998;4.250;2023-04-22T05:19:23;100382.81;;;10.21;80.00
13593;BME280;6867;50.998;4.250;2023-04-22T05:21:49;100392.28;;;10.30;79.82
13593;BME280;6867;50.998;4.250;2023-04-22T05:24:17;100379.44;;;10.32;80.47
13593;BME280;6867;50.998;4.250;2023-04-22T05:26:44;100383.00;;;10.33;80.05
13593;BME280;6867;50.998;4.250;2023-04-22T05:29:11;100393.75;;;10.26;79.99
13593;BME280;6867;50.998;4.250;2023-04-22T05:31:37;100401.31;;;10.36;80.99
13593;BME280;6867;50.998;4.250;2023-04-22T05:34:04;100403.13;;;10.48;81.16
13593;BME280;6867;50.998;4.250;2023-04-22T05:36:31;100403.31;;;10.54;81.31
13593;BME280;6867;50.998;4.250;2023-04-22T05:38:57;100399.06;;;10.71;81.13
13593;BME280;6867;50.998;4.250;2023-04-22T05:41:26;100391.53;;;10.55;80.29
13593;BME280;6867;50.998;4.250;2023-04-22T05:43:52;100396.09;;;10.79;81.37
13593;BME280;6867;50.998;4.250;2023-04-22T05:46:19;100394.38;;;10.91;81.40
13593;BME280;6867;50.998;4.250;2023-04-22T05:48:46;100403.53;;;11.09;81.71
13593;BME280;6867;50.998;4.250;2023-04-22T05:51:13;100415.38;;;11.26;81.91
13593;BME280;6867;50.998;4.250;2023-04-22T05:53:40;100417.88;;;11.46;81.37
13593;BME280;6867;50.998;4.250;2023-04-22T05:56:07;100427.16;;;11.68;81.74
13593;BME280;6867;50.998;4.250;2023-04-22T05:58:35;100416.44;;;11.43;80.64
13593;BME280;6867;50.998;4.250;2023-04-22T06:01:02;100425.13;;;11.64;81.10
13593;BME280;6867;50.998;4.250;2023-04-22T06:03:29;100425.63;;;11.98;81.37
13593;BME280;6867;50.998;4.250;2023-04-22T06:05:56;100420.88;;;12.30;81.38
13593;BME280;6867;50.998;4.250;2023-04-22T06:08:23;100402.84;;;12.30;80.96
13593;BME280;6867;50.998;4.250;2023-04-22T06:10:49;100400.09;;;12.49;80.89
13593;BME280;6867;50.998;4.250;2023-04-22T06:13:16;100389.25;;;12.37;80.15
13593;BME280;6867;50.998;4.250;2023-04-22T06:15:44;100392.66;;;12.62;80.19
13593;BME280;6867;50.998;4.250;2023-04-22T06:18:11;100392.28;;;12.59;79.86
13593;BME280;6867;50.998;4.250;2023-04-22T06:20:38;100409.31;;;12.83;79.81
13593;BME280;6867;50.998;4.250;2023-04-22T06:23:05;100398.66;;;12.76;79.24
13593;BME280;6867;50.998;4.250;2023-04-22T06:25:31;100387.53;;;12.84;79.16
13593;BME280;6867;50.998;4.250;2023-04-22T06:27:58;100379.13;;;13.04;78.64
13593;BME280;6867;50.998;4.250;2023-04-22T06:30:25;100371.97;;;13.10;78.42
13593;BME280;6867;50.998;4.250;2023-04-22T06:32:54;100393.94;;;13.49;78.75
13593;BME280;6867;50.998;4.250;2023-04-22T06:35:21;100375.84;;;13.37;78.25
13593;BME280;6867;50.998;4.250;2023-04-22T06:37:48;100373.75;;;13.39;78.19
13593;BME280;6867;50.998;4.250;2023-04-22T06:40:14;100367.41;;;13.57;77.85
13593;BME280;6867;50.998;4.250;2023-04-22T06:42:41;100359.78;;;13.54;77.55
13593;BME280;6867;50.998;4.250;2023-04-22T06:45:08;100366.84;;;13.55;77.55
13593;BME280;6867;50.998;4.250;2023-04-22T06:47:37;100347.59;;;13.52;76.93
13593;BME280;6867;50.998;4.250;2023-04-22T06:50:06;100355.25;;;13.83;77.46
13593;BME280;6867;50.998;4.250;2023-04-22T06:52:33;100346.56;;;13.93;76.43
13593;BME280;6867;50.998;4.250;2023-04-22T06:55:00;100324.00;;;13.87;75.26
13593;BME280;6867;50.998;4.250;2023-04-22T06:57:27;100341.97;;;13.93;75.15
13593;BME280;6867;50.998;4.250;2023-04-22T06:59:54;100337.50;;;13.59;74.23
13593;BME280;6867;50.998;4.250;2023-04-22T07:02:21;100353.22;;;13.50;74.86
13593;BME280;6867;50.998;4.250;2023-04-22T07:04:48;100342.56;;;13.43;74.97
13593;BME280;6867;50.998;4.250;2023-04-22T07:07:16;100356.84;;;13.56;75.44
13593;BME280;6867;50.998;4.250;2023-04-22T07:09:43;100350.28;;;13.52;74.89
13593;BME280;6867;50.998;4.250;2023-04-22T07:12:10;100351.81;;;13.59;74.88
13593;BME280;6867;50.998;4.250;2023-04-22T07:14:39;100358.22;;;13.70;75.04
13593;BME280;6867;50.998;4.250;2023-04-22T07:17:07;100320.75;;;13.33;73.93
13593;BME280;6867;50.998;4.250;2023-04-22T07:19:34;100338.53;;;14.27;73.95
13593;BME280;6867;50.998;4.250;2023-04-22T07:22:01;100335.88;;;14.43;74.07
13593;BME280;6867;50.998;4.250;2023-04-22T07:24:30;100316.25;;;14.82;73.25
13593;BME280;6867;50.998;4.250;2023-04-22T07:26:56;100269.53;;;13.90;71.72
13593;BME280;6867;50.998;4.250;2023-04-22T07:29:23;100302.38;;;14.44;72.47
13593;BME280;6867;50.998;4.250;2023-04-22T07:31:50;100309.72;;;14.78;71.88
13593;BME280;6867;50.998;4.250;2023-04-22T07:34:17;100272.28;;;14.69;71.12
13593;BME280;6867;50.998;4.250;2023-04-22T07:36:43;100266.75;;;14.48;70.50
13593;BME280;6867;50.998;4.250;2023-04-22T07:39:10;100253.75;;;14.61;70.35
13593;BME280;6867;50.998;4.250;2023-04-22T07:41:38;100210.94;;;14.92;69.50
13593;BME280;6867;50.998;4.250;2023-04-22T07:44:05;100181.88;;;14.82;68.52
13593;BME280;6867;50.998;4.250;2023-04-22T07:46:31;100203.91;;;14.91;68.94
13593;BME280;6867;50.998;4.250;2023-04-22T07:48:58;100205.63;;;15.19;68.01
13593;BME280;6867;50.998;4.250;2023-04-22T07:51:25;100209.00;;;15.53;68.56
13593;BME280;6867;50.998;4.250;2023-04-22T07:53:51;100198.25;;;15.85;67.00
13593;BME280;6867;50.998;4.250;2023-04-22T07:56:18;100164.84;;;15.04;66.99
13593;BME280;6867;50.998;4.250;2023-04-22T07:58:46;100153.53;;;15.07;66.17
13593;BME280;6867;50.998;4.250;2023-04-22T08:01:13;100163.03;;;15.31;66.06
13593;BME280;6867;50.998;4.250;2023-04-22T08:03:39;100194.81;;;15.19;66.52
13593;BME280;6867;50.998;4.250;2023-04-22T08:06:06;100239.84;;;15.52;66.76
13593;BME280;6867;50.998;4.250;2023-04-22T08:08:33;100246.03;;;16.24;65.63
13593;BME280;6867;50.998;4.250;2023-04-22T08:11:00;100226.16;;;16.50;64.63
13593;BME280;6867;50.998;4.250;2023-04-22T08:13:26;100209.22;;;16.70;63.49
13593;BME280;6867;50.998;4.250;2023-04-22T08:15:54;100209.00;;;17.29;62.32
13593;BME280;6867;50.998;4.250;2023-04-22T08:18:21;100177.81;;;16.74;61.34
13593;BME280;6867;50.998;4.250;2023-04-22T08:20:49;100243.41;;;17.13;62.76
13593;BME280;6867;50.998;4.250;2023-04-22T08:23:15;100208.59;;;17.00;61.60
13593;BME280;6867;50.998;4.250;2023-04-22T08:25:42;100249.88;;;16.33;63.68
13593;BME280;6867;50.998;4.250;2023-04-22T08:28:08;100281.44;;;16.76;63.98
13593;BME280;6867;50.998;4.250;2023-04-22T08:30:35;100238.56;;;17.21;62.44
13593;BME280;6867;50.998;4.250;2023-04-22T08:33:04;100178.69;;;17.58;59.84
13593;BME280;6867;50.998;4.250;2023-04-22T08:35:30;100206.78;;;17.99;60.53
13593;BME280;6867;50.998;4.250;2023-04-22T08:37:59;100144.00;;;17.96;58.33
13593;BME280;6867;50.998;4.250;2023-04-22T08:40:26;100143.72;;;17.87;58.06
13593;BME280;6867;50.998;4.250;2023-04-22T08:42:53;100127.94;;;18.25;57.02
13593;BME280;6867;50.998;4.250;2023-04-22T08:45:21;100128.41;;;18.62;56.64
13593;BME280;6867;50.998;4.250;2023-04-22T08:47:48;100133.00;;;18.82;56.26
13593;BME280;6867;50.998;4.250;2023-04-22T08:50:19;100139.53;;;18.81;56.77
13593;BME280;6867;50.998;4.250;2023-04-22T08:52:46;100061.09;;;18.99;54.48
13593;BME280;6867;50.998;4.250;2023-04-22T08:55:13;100122.78;;;18.28;56.28
13593;BME280;6867;50.998;4.250;2023-04-22T08:57:39;100148.31;;;18.37;57.15
13593;BME280;6867;50.998;4.250;2023-04-22T09:00:07;100132.22;;;18.61;56.45
13593;BME280;6867;50.998;4.250;2023-04-22T09:02:36;100103.66;;;18.74;55.57
13593;BME280;6867;50.998;4.250;2023-04-22T09:05:05;100074.88;;;18.53;55.19
13593;BME280;6867;50.998;4.250;2023-04-22T09:07:33;100100.13;;;18.58;55.84
13593;BME280;6867;50.998;4.250;2023-04-22T09:10:00;100040.19;;;17.68;55.46
13593;BME280;6867;50.998;4.250;2023-04-22T09:12:27;100098.81;;;17.33;57.35
13593;BME280;6867;50.998;4.250;2023-04-22T09:14:54;100148.97;;;17.10;58.77
13593;BME280;6867;50.998;4.250;2023-04-22T09:17:29;100081.25;;;17.77;56.89
13593;BME280;6867;50.998;4.250;2023-04-22T09:19:57;100106.72;;;17.50;57.65
13593;BME280;6867;50.998;4.250;2023-04-22T09:22:25;100119.47;;;17.45;58.19
13593;BME280;6867;50.998;4.250;2023-04-22T09:24:53;100157.50;;;17.45;59.05
13593;BME280;6867;50.998;4.250;2023-04-22T09:27:23;100165.28;;;17.26;59.31
13593;BME280;6867;50.998;4.250;2023-04-22T09:29:50;100165.63;;;17.39;59.17
13593;BME280;6867;50.998;4.250;2023-04-22T09:32:18;100188.63;;;17.22;59.58
13593;BME280;6867;50.998;4.250;2023-04-22T09:34:49;100188.53;;;17.01;60.04
13593;BME280;6867;50.998;4.250;2023-04-22T09:37:23;100219.13;;;16.91;61.24
13593;BME280;6867;50.998;4.250;2023-04-22T09:39:50;100218.78;;;16.40;61.48
13593;BME280;6867;50.998;4.250;2023-04-22T09:42:20;100278.13;;;16.37;62.74
13593;BME280;6867;50.998;4.250;2023-04-22T09:44:47;100280.03;;;16.09;63.42
13593;BME280;6867;50.998;4.250;2023-04-22T09:47:17;100298.06;;;15.99;63.93
13593;BME280;6867;50.998;4.250;2023-04-22T09:49:45;100307.91;;;15.61;65.76
13593;BME280;6867;50.998;4.250;2023-04-22T09:52:20;100312.72;;;15.59;65.85
13593;BME280;6867;50.998;4.250;2023-04-22T09:54:48;100324.25;;;15.49;66.94
13593;BME280;6867;50.998;4.250;2023-04-22T09:57:16;100375.91;;;15.09;69.47
13593;BME280;6867;50.998;4.250;2023-04-22T09:59:44;100348.28;;;15.07;69.87
13593;BME280;6867;50.998;4.250;2023-04-22T10:02:11;100361.41;;;14.98;70.33
13593;BME280;6867;50.998;4.250;2023-04-22T10:04:37;100364.84;;;14.93;70.95
13593;BME280;6867;50.998;4.250;2023-04-22T10:07:04;100369.19;;;14.94;71.79
13593;BME280;6867;50.998;4.250;2023-04-22T10:09:31;100370.81;;;14.95;71.72
13593;BME280;6867;50.998;4.250;2023-04-22T10:11:58;100385.41;;;14.78;73.25
13593;BME280;6867;50.998;4.250;2023-04-22T10:14:26;100389.81;;;14.84;73.64
13593;BME280;6867;50.998;4.250;2023-04-22T10:16:56;100384.28;;;14.90;74.04
13593;BME280;6867;50.998;4.250;2023-04-22T10:19:25;100383.19;;;14.91;74.31
13593;BME280;6867;50.998;4.250;2023-04-22T10:21:54;100377.47;;;14.88;74.51
13593;BME280;6867;50.998;4.250;2023-04-22T10:24:24;100368.38;;;14.94;74.03
13593;BME280;6867;50.998;4.250;2023-04-22T10:26:54;100376.22;;;14.95;74.84
13593;BME280;6867;50.998;4.250;2023-04-22T10:29:22;100369.03;;;14.67;74.89
13593;BME280;6867;50.998;4.250;2023-04-22T10:31:56;100379.13;;;14.43;76.02
13593;BME280;6867;50.998;4.250;2023-04-22T10:34:30;100374.91;;;14.64;75.98
13593;BME280;6867;50.998;4.250;2023-04-22T10:36:59;100376.88;;;14.69;76.52
13593;BME280;6867;50.998;4.250;2023-04-22T10:39:27;100378.34;;;14.60;76.73
13593;BME280;6867;50.998;4.250;2023-04-22T10:42:04;100377.53;;;14.59;77.12
13593;BME280;6867;50.998;4.250;2023-04-22T10:44:47;100360.91;;;14.67;76.69
13593;BME280;6867;50.998;4.250;2023-04-22T10:47:27;100356.88;;;14.70;76.51
13593;BME280;6867;50.998;4.250;2023-04-22T10:50:22;100351.56;;;14.75;76.73
13593;BME280;6867;50.998;4.250;2023-04-22T10:52:53;100354.13;;;14.99;76.97
13593;BME280;6867;50.998;4.250;2023-04-22T10:55:20;100342.22;;;15.00;76.15
13593;BME280;6867;50.998;4.250;2023-04-22T10:57:49;100332.34;;;14.88;76.56
13593;BME280;6867;50.998;4.250;2023-04-22T11:00:40;100358.84;;;14.58;77.47
13593;BME280;6867;50.998;4.250;2023-04-22T11:03:12;100355.94;;;14.76;77.41
13593;BME280;6867;50.998;4.250;2023-04-22T11:05:39;100346.06;;;14.87;76.85
13593;BME280;6867;50.998;4.250;2023-04-22T11:08:12;100361.81;;;15.07;77.10
13593;BME280;6867;50.998;4.250;2023-04-22T11:10:40;100359.66;;;15.26;76.65
13593;BME280;6867;50.998;4.250;2023-04-22T11:13:09;100346.72;;;15.11;76.06
13593;BME280;6867;50.998;4.250;2023-04-22T11:15:38;100344.78;;;15.06;76.00
13593;BME280;6867;50.998;4.250;2023-04-22T11:18:12;100355.06;;;15.26;76.06
13593;BME280;6867;50.998;4.250;2023-04-22T11:20:40;100352.97;;;14.94;76.63
13593;BME280;6867;50.998;4.250;2023-04-22T11:23:06;100354.13;;;14.99;75.93
13593;BME280;6867;50.998;4.250;2023-04-22T11:25:33;100356.34;;;15.02;75.86
13593;BME280;6867;50.998;4.250;2023-04-22T11:28:00;100353.22;;;15.10;74.87
13593;BME280;6867;50.998;4.250;2023-04-22T11:30:28;100364.69;;;14.83;75.70
13593;BME280;6867;50.998;4.250;2023-04-22T11:32:57;100360.25;;;14.77;75.33
13593;BME280;6867;50.998;4.250;2023-04-22T11:35:28;100371.63;;;14.96;75.85
13593;BME280;6867;50.998;4.250;2023-04-22T11:37:56;100350.66;;;15.20;75.32
13593;BME280;6867;50.998;4.250;2023-04-22T11:40:25;100357.16;;;15.41;74.47
13593;BME280;6867;50.998;4.250;2023-04-22T11:42:52;100341.88;;;15.68;74.20
13593;BME280;6867;50.998;4.250;2023-04-22T11:45:19;100348.41;;;15.94;73.58
13593;BME280;6867;50.998;4.250;2023-04-22T11:47:47;100340.69;;;16.08;73.43
13593;BME280;6867;50.998;4.250;2023-04-22T11:50:16;100339.28;;;16.28;72.58
13593;BME280;6867;50.998;4.250;2023-04-22T11:52:47;100333.06;;;16.27;71.92
13593;BME280;6867;50.998;4.250;2023-04-22T11:55:16;100338.56;;;16.10;71.39
13593;BME280;6867;50.998;4.250;2023-04-22T11:57:44;100327.72;;;16.10;71.22
13593;BME280;6867;50.998;4.250;2023-04-22T12:00:13;100330.56;;;16.26;71.07
13593;BME280;6867;50.998;4.250;2023-04-22T12:02:42;100344.81;;;16.11;71.45
13593;BME280;6867;50.998;4.250;2023-04-22T12:05:10;100343.41;;;16.08;72.03
13593;BME280;6867;50.998;4.250;2023-04-22T12:07:38;100351.44;;;16.25;71.98
13593;BME280;6867;50.998;4.250;2023-04-22T12:10:07;100355.81;;;16.26;72.06
13593;BME280;6867;50.998;4.250;2023-04-22T12:12:38;100358.63;;;16.09;72.11
13593;BME280;6867;50.998;4.250;2023-04-22T12:15:09;100347.91;;;15.98;71.75
13593;BME280;6867;50.998;4.250;2023-04-22T12:17:36;100362.22;;;15.54;72.66
13593;BME280;6867;50.998;4.250;2023-04-22T12:20:03;100378.34;;;15.27;73.48
13593;BME280;6867;50.998;4.250;2023-04-22T12:22:31;100396.63;;;15.37;74.52
13593;BME280;6867;50.998;4.250;2023-04-22T12:24:59;100379.41;;;15.43;74.09
13593;BME280;6867;50.998;4.250;2023-04-22T12:27:27;100374.53;;;15.45;74.10
13593;BME280;6867;50.998;4.250;2023-04-22T12:29:55;100378.22;;;15.56;74.05
13593;BME280;6867;50.998;4.250;2023-04-22T12:32:24;100378.22;;;15.56;73.90
13593;BME280;6867;50.998;4.250;2023-04-22T12:34:51;100370.84;;;15.68;73.83
13593;BME280;6867;50.998;4.250;2023-04-22T12:37:18;100374.69;;;15.55;73.96
13593;BME280;6867;50.998;4.250;2023-04-22T12:39:45;100369.47;;;15.49;73.99
13593;BME280;6867;50.998;4.250;2023-04-22T12:42:12;100353.28;;;15.54;73.28
13593;BME280;6867;50.998;4.250;2023-04-22T12:44:40;100360.13;;;15.39;73.29
13593;BME280;6867;50.998;4.250;2023-04-22T12:47:07;100370.63;;;15.36;73.92
13593;BME280;6867;50.998;4.250;2023-04-22T12:49:35;100371.03;;;15.44;73.79
13593;BME280;6867;50.998;4.250;2023-04-22T12:52:02;100369.47;;;15.49;73.64
13593;BME280;6867;50.998;4.250;2023-04-22T12:54:29;100367.06;;;14.97;73.75
13593;BME280;6867;50.998;4.250;2023-04-22T12:56:56;100366.31;;;15.18;73.67
13593;BME280;6867;50.998;4.250;2023-04-22T12:59:23;100374.34;;;14.79;73.90
13593;BME280;6867;50.998;4.250;2023-04-22T13:01:51;100380.06;;;14.66;73.93
13593;BME280;6867;50.998;4.250;2023-04-22T13:04:19;100378.44;;;14.82;74.28
13593;BME280;6867;50.998;4.250;2023-04-22T13:06:46;100389.53;;;14.80;74.41